Time;durP1;ratioP1;P1;durP2;ratioP2;P2;SDS_P1;SDS_P2;PMS_P1;PMS_P2;Temp;Humidity;BMP_temperature;BMP_pressure;BME280_temperature;BME280_humidity;BME280_pressure;Samples;Min_cycle;Max_cycle;Signal;HPM_P1;HPM_P2
2021/03/04 00:00:13;;;;;;;46.88;20.48;;;3.90;92.60;;;;;;5030022;28;20478;-73
2021/03/04 00:02:40;;;;;;;48.95;19.30;;;4.00;92.50;;;;;;5031028;28;20042;-73
2021/03/04 00:05:08;;;;;;;49.28;19.52;;;4.00;92.60;;;;;;5030900;28;20439;-73
2021/03/04 00:07:34;;;;;;;40.33;17.48;;;3.90;92.60;;;;;;5030065;28;20106;-73
2021/03/04 00:10:01;;;;;;;40.65;17.60;;;3.90;92.60;;;;;;5030157;28;20044;-73
2021/03/04 00:12:27;;;;;;;40.08;17.45;;;3.90;92.40;;;;;;5031135;28;20449;-73
2021/03/04 00:14:52;;;;;;;39.30;17.08;;;3.90;92.30;;;;;;5030847;28;20045;-74
2021/03/04 00:17:18;;;;;;;42.83;16.42;;;3.80;92.40;;;;;;5031093;28;20052;-73
2021/03/04 00:19:44;;;;;;;42.70;17.65;;;3.80;92.50;;;;;;5030297;28;20518;-73
2021/03/04 00:22:10;;;;;;;51.53;19.60;;;3.90;92.50;;;;;;5030913;28;20124;-73
2021/03/04 00:24:36;;;;;;;39.30;17.13;;;3.90;92.50;;;;;;5030454;28;20042;-73
2021/03/04 00:27:01;;;;;;;38.47;17.15;;;4.00;92.50;;;;;;5030618;28;20034;-73
2021/03/04 00:29:27;;;;;;;42.60;18.85;;;3.90;92.50;;;;;;5031251;28;20045;-73
2021/03/04 00:31:53;;;;;;;41.90;19.10;;;4.00;92.50;;;;;;5031378;28;20082;-73
2021/03/04 00:34:19;;;;;;;46.55;19.80;;;4.00;92.50;;;;;;5030605;28;20042;-73
2021/03/04 00:36:45;;;;;;;44.70;18.52;;;4.00;92.50;;;;;;5031343;28;20037;-73
2021/03/04 00:39:10;;;;;;;43.72;18.80;;;3.90;92.50;;;;;;5030822;28;20045;-73
2021/03/04 00:41:36;;;;;;;42.63;19.50;;;4.00;92.70;;;;;;5030975;28;20069;-73
2021/03/04 00:44:06;;;;;;;45.75;19.23;;;4.00;92.60;;;;;;5030053;28;20481;-73
2021/03/04 00:46:33;;;;;;;46.97;20.08;;;4.10;92.40;;;;;;5030963;28;20044;-73
2021/03/04 00:49:00;;;;;;;49.50;19.50;;;4.00;92.30;;;;;;5030376;28;20045;-73
2021/03/04 00:51:26;;;;;;;42.42;18.98;;;4.00;92.40;;;;;;5029513;28;20183;-73
2021/03/04 00:53:52;;;;;;;46.47;20.00;;;4.00;92.40;;;;;;5030603;28;20041;-73
2021/03/04 00:56:18;;;;;;;51.47;21.15;;;3.90;92.50;;;;;;5030240;28;20037;-73
2021/03/04 00:58:43;;;;;;;45.95;19.73;;;3.90;92.50;;;;;;5030947;28;20041;-74
2021/03/04 01:01:09;;;;;;;48.97;20.90;;;3.90;92.60;;;;;;5030932;28;20108;-73
2021/03/04 01:03:34;;;;;;;44.60;20.58;;;3.80;92.70;;;;;;5030332;28;20069;-73
2021/03/04 01:06:01;;;;;;;47.25;20.58;;;3.90;92.80;;;;;;5030376;28;20465;-73
2021/03/04 01:08:26;;;;;;;49.75;20.27;;;4.00;92.80;;;;;;5030391;28;20116;-73
2021/03/04 01:10:52;;;;;;;45.13;19.75;;;4.00;92.70;;;;;;5030613;28;20489;-73
2021/03/04 01:13:18;;;;;;;43.80;20.77;;;4.00;92.60;;;;;;5030240;28;20061;-73
2021/03/04 01:15:44;;;;;;;40.45;19.23;;;4.00;92.50;;;;;;5030113;28;20046;-73
2021/03/04 01:18:10;;;;;;;48.63;19.75;;;4.00;92.40;;;;;;5030145;28;20037;-73
2021/03/04 01:20:36;;;;;;;47.13;20.08;;;4.00;92.30;;;;;;5030409;28;20114;-73
2021/03/04 01:23:02;;;;;;;46.28;20.83;;;4.00;92.50;;;;;;5029850;28;20075;-73
2021/03/04 01:25:29;;;;;;;48.33;21.17;;;3.90;92.50;;;;;;5030400;28;20124;-73
2021/03/04 01:27:55;;;;;;;48.38;20.85;;;3.90;92.50;;;;;;5029700;28;20163;-73
2021/03/04 01:30:25;;;;;;;44.28;20.92;;;4.00;92.70;;;;;;5030636;28;20041;-73
2021/03/04 01:32:50;;;;;;;51.05;21.85;;;4.00;92.60;;;;;;5032129;28;20116;-73
2021/03/04 01:35:17;;;;;;;54.83;23.73;;;4.00;92.60;;;;;;5033578;28;20482;-73
2021/03/04 01:37:43;;;;;;;52.50;21.92;;;3.90;92.70;;;;;;5034068;28;20044;-73
2021/03/04 01:40:14;;;;;;;49.75;21.85;;;3.90;92.80;;;;;;5033217;28;20037;-73
2021/03/04 01:42:40;;;;;;;60.72;24.60;;;3.80;92.90;;;;;;5033187;28;20069;-74
2021/03/04 01:45:06;;;;;;;48.88;22.63;;;3.80;92.90;;;;;;5033110;28;20106;-73
2021/03/04 01:47:33;;;;;;;58.33;24.35;;;4.00;93.00;;;;;;5033414;28;20073;-73
2021/03/04 01:50:00;;;;;;;52.58;21.55;;;4.00;92.90;;;;;;5033555;28;20061;-73
2021/03/04 01:52:26;;;;;;;57.03;25.33;;;4.10;92.80;;;;;;5033304;28;20094;-73
2021/03/04 01:54:53;;;;;;;52.15;23.17;;;4.10;92.80;;;;;;5033582;28;20041;-73
2021/03/04 01:57:19;;;;;;;58.08;24.77;;;4.00;92.60;;;;;;5033861;28;20140;-73
2021/03/04 01:59:45;;;;;;;60.45;25.17;;;4.10;92.60;;;;;;5033136;28;20112;-73
2021/03/04 02:02:11;;;;;;;58.70;26.05;;;4.10;92.90;;;;;;5032871;28;20449;-73
2021/03/04 02:04:37;;;;;;;69.10;26.73;;;4.10;92.80;;;;;;5032576;28;20033;-73
2021/03/04 02:07:28;;;;;;;57.95;23.83;;;4.00;92.90;;;;;;5032723;28;20116;-73
2021/03/04 02:10:29;;;;;;;61.70;25.02;;;4.00;93.00;;;;;;5033519;28;20042;-73
2021/03/04 02:13:18;;;;;;;48.60;20.92;;;4.00;93.10;;;;;;5032768;28;20485;-73
2021/03/04 02:15:47;;;;;;;42.95;21.08;;;4.00;93.00;;;;;;5032919;28;20041;-73
2021/03/04 02:18:16;;;;;;;48.97;21.75;;;4.00;92.80;;;;;;5032710;28;20072;-73
2021/03/04 02:20:53;;;;;;;44.15;20.40;;;4.10;92.80;;;;;;5032679;28;20083;-73
2021/03/04 02:23:36;;;;;;;45.72;20.08;;;4.00;92.80;;;;;;5032324;28;20033;-73
2021/03/04 02:26:18;;;;;;;45.97;20.38;;;4.00;92.80;;;;;;5032670;28;20541;-73
2021/03/04 02:28:48;;;;;;;45.97;19.33;;;3.90;93.00;;;;;;5032488;28;20462;-73
2021/03/04 02:31:14;;;;;;;46.80;20.80;;;3.90;93.00;;;;;;5032710;28;20034;-73
2021/03/04 02:33:44;;;;;;;41.55;18.13;;;3.80;93.00;;;;;;5032416;28;20037;-73
2021/03/04 02:36:10;;;;;;;39.38;18.88;;;3.80;93.00;;;;;;5032419;28;20065;-73
2021/03/04 02:38:37;;;;;;;36.03;17.38;;;3.70;93.00;;;;;;5033022;28;20042;-73
2021/03/04 02:41:04;;;;;;;28.60;14.55;;;3.70;93.10;;;;;;5032485;28;20394;-73
2021/03/04 02:43:31;;;;;;;32.78;14.05;;;3.70;92.90;;;;;;5032214;28;20037;-73
2021/03/04 02:45:58;;;;;;;28.58;13.15;;;3.70;92.70;;;;;;5032232;28;20073;-73
2021/03/04 02:48:25;;;;;;;27.50;13.40;;;3.70;92.80;;;;;;5032461;28;20112;-73
2021/03/04 02:50:52;;;;;;;27.70;14.60;;;3.80;92.80;;;;;;5032471;28;20051;-73
2021/03/04 02:53:19;;;;;;;26.52;13.50;;;3.80;92.70;;;;;;5032248;28;20033;-73
2021/03/04 02:55:45;;;;;;;29.75;14.80;;;3.90;92.60;;;;;;5032775;28;20048;-73
2021/03/04 02:58:13;;;;;;;32.50;15.10;;;3.90;92.60;;;;;;5032261;28;20419;-73
2021/03/04 03:00:39;;;;;;;29.50;14.77;;;3.70;92.60;;;;;;5032864;28;20037;-73
2021/03/04 03:03:11;;;;;;;27.77;14.43;;;3.80;92.60;;;;;;5032057;28;20112;-73
2021/03/04 03:05:38;;;;;;;25.17;14.63;;;3.60;92.80;;;;;;5031950;28;20045;-73
2021/03/04 03:08:05;;;;;;;26.48;13.65;;;3.60;93.00;;;;;;5031893;28;20069;-73
2021/03/04 03:10:31;;;;;;;29.55;13.68;;;3.60;93.00;;;;;;5031865;28;20450;-73
2021/03/04 03:12:58;;;;;;;26.63;12.73;;;3.50;92.90;;;;;;5031975;28;20037;-73
2021/03/04 03:15:25;;;;;;;24.95;13.38;;;3.50;92.90;;;;;;5032315;28;20473;-73
2021/03/04 03:17:51;;;;;;;25.50;13.57;;;3.50;92.80;;;;;;5032251;28;20116;-73
2021/03/04 03:20:19;;;;;;;25.23;12.98;;;3.50;93.00;;;;;;5032261;28;20478;-73
2021/03/04 03:22:48;;;;;;;29.60;13.35;;;3.50;92.80;;;;;;5032287;28;20068;-73
2021/03/04 03:25:15;;;;;;;25.05;12.25;;;3.40;92.90;;;;;;5031729;28;20101;-73
2021/03/04 03:27:42;;;;;;;27.10;12.48;;;3.40;93.00;;;;;;5031812;28;20045;-73
2021/03/04 03:30:15;;;;;;;21.95;11.85;;;3.40;92.90;;;;;;5031684;28;20042;-73
2021/03/04 03:32:45;;;;;;;20.02;10.75;;;3.40;92.70;;;;;;5031779;28;20041;-73
2021/03/04 03:35:11;;;;;;;24.90;11.60;;;3.40;92.70;;;;;;5032062;28;20042;-73
2021/03/04 03:37:38;;;;;;;23.30;11.43;;;3.50;92.60;;;;;;5031621;28;20045;-73
2021/03/04 03:40:06;;;;;;;24.90;11.75;;;3.50;92.70;;;;;;5031854;28;20159;-73
2021/03/04 03:42:34;;;;;;;21.90;11.50;;;3.50;92.60;;;;;;5031393;28;20048;-73
2021/03/04 03:45:00;;;;;;;21.95;11.05;;;3.60;92.60;;;;;;5031746;28;20041;-73
2021/03/04 03:47:26;;;;;;;25.27;12.82;;;3.60;92.60;;;;;;5031576;28;20033;-73
2021/03/04 03:49:53;;;;;;;23.48;11.88;;;3.50;92.60;;;;;;5031242;28;20045;-73
2021/03/04 03:52:19;;;;;;;26.20;12.57;;;3.60;92.70;;;;;;5030973;28;20365;-75
2021/03/04 03:54:45;;;;;;;22.52;11.35;;;3.50;92.60;;;;;;5030899;28;20359;-74
2021/03/04 03:57:13;;;;;;;23.48;11.68;;;3.50;92.50;;;;;;5031203;28;20041;-73
2021/03/04 03:59:41;;;;;;;23.73;11.95;;;3.50;92.70;;;;;;5031850;28;20090;-73
2021/03/04 04:02:07;;;;;;;23.95;11.70;;;3.60;92.60;;;;;;5031765;28;20086;-73
2021/03/04 04:04:33;;;;;;;25.50;11.93;;;3.60;92.40;;;;;;5030671;28;20120;-73
2021/03/04 04:06:59;;;;;;;22.27;12.00;;;3.60;92.60;;;;;;5031180;28;20065;-73
2021/03/04 04:09:26;;;;;;;23.10;11.75;;;3.60;92.50;;;;;;5031037;28;20477;-73
2021/03/04 04:11:51;;;;;;;25.20;12.70;;;3.70;92.50;;;;;;5031411;28;20441;-73
2021/03/04 04:14:17;;;;;;;22.38;12.57;;;3.50;92.50;;;;;;5031183;28;20048;-73
2021/03/04 04:16:43;;;;;;;23.85;11.57;;;3.50;92.90;;;;;;5029618;28;20033;-74
2021/03/04 04:19:09;;;;;;;26.73;12.20;;;3.50;92.70;;;;;;5030734;28;20042;-73
2021/03/04 04:21:35;;;;;;;22.27;12.25;;;3.50;93.00;;;;;;5031029;28;20040;-73
2021/03/04 04:24:01;;;;;;;22.10;11.70;;;3.50;93.00;;;;;;5030822;28;20046;-73
2021/03/04 04:26:27;;;;;;;20.95;11.02;;;3.50;92.80;;;;;;5030590;28;20374;-73
2021/03/04 04:28:53;;;;;;;19.35;9.73;;;3.40;92.90;;;;;;5031199;28;20129;-73
2021/03/04 04:31:21;;;;;;;19.35;10.40;;;3.40;92.80;;;;;;5031412;28;20403;-73
2021/03/04 04:33:46;;;;;;;21.35;10.65;;;3.40;92.90;;;;;;5030368;28;20120;-73
2021/03/04 04:36:12;;;;;;;17.25;9.23;;;3.30;92.70;;;;;;5030977;28;20065;-73
2021/03/04 04:38:38;;;;;;;19.73;11.15;;;3.30;92.70;;;;;;5031274;28;20037;-73
2021/03/04 04:41:04;;;;;;;18.02;10.10;;;3.40;92.80;;;;;;5031089;28;20488;-73
2021/03/04 04:43:30;;;;;;;18.77;10.23;;;3.50;92.70;;;;;;5030205;28;20420;-73
2021/03/04 04:45:55;;;;;;;20.88;10.93;;;3.50;92.60;;;;;;5030875;28;20037;-73
2021/03/04 04:48:21;;;;;;;19.75;11.00;;;3.50;92.60;;;;;;5030401;28;20460;-73
2021/03/04 04:50:47;;;;;;;20.73;11.23;;;3.60;92.60;;;;;;5030576;28;20066;-73
2021/03/04 04:53:12;;;;;;;19.20;11.15;;;3.60;92.40;;;;;;5029514;28;20046;-73
2021/03/04 04:55:38;;;;;;;22.13;11.40;;;3.60;92.50;;;;;;5030093;28;20507;-73
2021/03/04 04:58:04;;;;;;;21.10;11.40;;;3.70;92.70;;;;;;5030795;28;20124;-73
2021/03/04 05:00:33;;;;;;;23.65;11.52;;;3.70;92.50;;;;;;5030860;28;20034;-73
2021/03/04 05:02:59;;;;;;;26.58;12.25;;;3.70;92.30;;;;;;5030179;28;20048;-73
2021/03/04 05:05:25;;;;;;;21.55;11.07;;;3.70;92.30;;;;;;5029965;28;20501;-73
2021/03/04 05:07:50;;;;;;;19.90;11.27;;;3.70;92.30;;;;;;5029313;28;20071;-73
2021/03/04 05:10:16;;;;;;;21.73;11.35;;;3.70;92.20;;;;;;5030703;28;20045;-73
2021/03/04 05:12:42;;;;;;;20.20;11.52;;;3.70;92.20;;;;;;5029763;28;20044;-73
2021/03/04 05:15:11;;;;;;;20.80;11.10;;;3.70;92.30;;;;;;5030597;28;20041;-73
2021/03/04 05:17:38;;;;;;;23.90;11.38;;;3.80;92.30;;;;;;5030151;28;20093;-73
2021/03/04 05:20:06;;;;;;;20.05;11.00;;;3.80;92.20;;;;;;5030193;28;20030;-73
2021/03/04 05:22:32;;;;;;;24.85;12.52;;;3.80;92.10;;;;;;5029862;28;20041;-73
2021/03/04 05:24:58;;;;;;;18.10;10.55;;;3.80;92.10;;;;;;5030482;28;20045;-73
2021/03/04 05:27:23;;;;;;;16.88;11.15;;;3.90;92.00;;;;;;5030545;28;20041;-73
2021/03/04 05:29:55;;;;;;;22.63;11.93;;;3.90;92.10;;;;;;5030066;28;20053;-73
2021/03/04 05:32:23;;;;;;;17.67;10.18;;;3.90;92.10;;;;;;5029616;28;20571;-74
2021/03/04 05:34:49;;;;;;;19.63;11.48;;;3.90;92.10;;;;;;5030022;28;20029;-73
2021/03/04 05:37:15;;;;;;;20.33;11.25;;;3.90;92.10;;;;;;5030360;28;20045;-73
2021/03/04 05:39:41;;;;;;;18.58;10.73;;;4.00;92.00;;;;;;5029584;28;20053;-73
2021/03/04 05:42:07;;;;;;;21.25;12.10;;;3.90;91.90;;;;;;5029911;28;20425;-73
2021/03/04 05:44:34;;;;;;;21.50;11.40;;;3.90;91.90;;;;;;5029483;28;20556;-73
2021/03/04 05:47:01;;;;;;;18.67;11.32;;;4.00;91.90;;;;;;5029739;28;20044;-73
2021/03/04 05:49:31;;;;;;;17.70;10.35;;;4.00;91.90;;;;;;5029861;28;20038;-73
2021/03/04 05:51:59;;;;;;;21.73;11.70;;;4.00;91.80;;;;;;5030183;28;20042;-73
2021/03/04 05:54:28;;;;;;;23.73;11.88;;;4.00;91.80;;;;;;5030091;28;20038;-73
2021/03/04 05:56:57;;;;;;;20.58;11.60;;;3.90;91.80;;;;;;5029533;28;20041;-73
2021/03/04 05:59:27;;;;;;;19.33;11.43;;;4.00;91.90;;;;;;5029689;28;20056;-73
2021/03/04 06:01:53;;;;;;;19.83;11.68;;;3.90;91.90;;;;;;5029888;28;20043;-73
2021/03/04 06:04:19;;;;;;;19.10;11.27;;;4.00;91.80;;;;;;5029417;28;20041;-73
2021/03/04 06:06:46;;;;;;;19.67;10.57;;;4.00;91.70;;;;;;5030044;28;20048;-73
2021/03/04 06:09:11;;;;;;;20.23;10.57;;;4.00;91.70;;;;;;5029608;28;20050;-73
2021/03/04 06:11:37;;;;;;;19.20;10.88;;;4.00;91.60;;;;;;5030092;28;20438;-73
2021/03/04 06:14:04;;;;;;;19.05;11.95;;;4.00;91.70;;;;;;5029320;28;20073;-73
2021/03/04 06:16:31;;;;;;;17.40;9.63;;;4.00;91.70;;;;;;5030333;28;20041;-73
2021/03/04 06:18:56;;;;;;;17.20;9.60;;;4.00;91.60;;;;;;5033210;28;20045;-74
2021/03/04 06:21:24;;;;;;;17.77;10.60;;;4.00;91.60;;;;;;5033333;28;20487;-73
2021/03/04 06:23:51;;;;;;;17.65;10.65;;;4.00;91.60;;;;;;5032265;28;20482;-74
2021/03/04 06:26:29;;;;;;;17.48;10.02;;;4.00;91.60;;;;;;5032830;28;20086;-73
2021/03/04 06:28:59;;;;;;;18.90;11.13;;;4.00;91.60;;;;;;5033126;28;20044;-72
2021/03/04 06:31:24;;;;;;;15.75;9.55;;;4.00;91.60;;;;;;5032826;28;20037;-72
2021/03/04 06:33:52;;;;;;;15.18;9.52;;;4.10;91.60;;;;;;5032166;28;20042;-72
2021/03/04 06:36:18;;;;;;;16.17;9.98;;;4.10;91.60;;;;;;5032402;28;20045;-73
2021/03/04 06:38:54;;;;;;;16.00;10.38;;;4.10;91.60;;;;;;5032486;28;20103;-72
2021/03/04 06:41:21;;;;;;;17.10;10.02;;;4.10;91.70;;;;;;5032867;28;20044;-72
2021/03/04 06:43:47;;;;;;;17.77;10.32;;;4.10;91.70;;;;;;5032622;28;20347;-72
2021/03/04 06:46:13;;;;;;;19.40;10.57;;;4.10;91.60;;;;;;5032188;28;20045;-72
2021/03/04 06:48:51;;;;;;;15.73;9.07;;;4.10;91.60;;;;;;5032363;28;20129;-72
2021/03/04 06:51:17;;;;;;;17.90;10.90;;;4.10;91.60;;;;;;5032421;28;20493;-72
2021/03/04 06:53:50;;;;;;;21.00;11.60;;;4.10;91.60;;;;;;5032290;28;20037;-72
2021/03/04 06:56:15;;;;;;;18.98;10.90;;;4.10;91.60;;;;;;5032659;28;20049;-72
2021/03/04 06:58:41;;;;;;;19.98;11.55;;;4.10;91.60;;;;;;5032281;28;20045;-72
2021/03/04 07:01:09;;;;;;;21.35;12.00;;;4.10;91.70;;;;;;5032689;28;20045;-72
2021/03/04 07:03:43;;;;;;;19.50;11.35;;;4.10;91.70;;;;;;5032113;28;20034;-72
2021/03/04 07:06:11;;;;;;;21.38;11.02;;;4.10;91.60;;;;;;5032107;28;20038;-72
2021/03/04 07:08:39;;;;;;;18.85;10.48;;;4.10;91.60;;;;;;5032305;28;20530;-72
2021/03/04 07:11:10;;;;;;;20.05;10.95;;;4.20;91.60;;;;;;5031802;28;20048;-72
2021/03/04 07:13:38;;;;;;;17.77;10.15;;;4.20;91.60;;;;;;5031594;28;20108;-71
2021/03/04 07:16:08;;;;;;;18.67;10.80;;;4.20;91.70;;;;;;5031645;28;20474;-72
2021/03/04 07:18:43;;;;;;;20.98;10.77;;;4.20;91.70;;;;;;5032292;28;20069;-72
2021/03/04 07:21:17;;;;;;;20.17;11.73;;;4.20;91.80;;;;;;5030987;28;20041;-71
2021/03/04 07:23:45;;;;;;;18.38;10.65;;;4.20;91.90;;;;;;5031398;28;20147;-71
2021/03/04 07:26:15;;;;;;;17.33;11.32;;;4.20;91.90;;;;;;5031412;28;20029;-71
2021/03/04 07:28:43;;;;;;;20.10;11.90;;;4.20;92.00;;;;;;5031755;28;20041;-72
2021/03/04 07:31:10;;;;;;;21.40;11.73;;;4.20;92.10;;;;;;5031462;28;20443;-72
2021/03/04 07:33:47;;;;;;;19.23;11.52;;;4.20;92.00;;;;;;5031220;28;20413;-72
2021/03/04 07:36:14;;;;;;;18.15;10.88;;;4.20;92.00;;;;;;5031316;28;20037;-72
2021/03/04 07:39:00;;;;;;;21.80;11.63;;;4.20;91.90;;;;;;5030842;28;20572;-72
2021/03/04 07:41:35;;;;;;;;;;;4.20;91.90;;;;;;5031939;28;20387;-72
2021/03/04 07:44:01;;;;;;;20.58;11.70;;;4.20;91.90;;;;;;5031098;28;20024;-71
2021/03/04 07:47:01;;;;;;;19.15;10.63;;;4.20;92.00;;;;;;5031514;28;20129;-72
2021/03/04 07:49:39;;;;;;;17.98;10.85;;;4.30;91.90;;;;;;5032452;28;20037;-72
2021/03/04 07:52:10;;;;;;;19.42;12.07;;;4.30;91.90;;;;;;5031915;28;20048;-72
2021/03/04 07:54:38;;;;;;;20.10;10.90;;;4.20;91.90;;;;;;5031512;28;20072;-72
2021/03/04 07:57:09;;;;;;;21.20;12.55;;;4.20;91.90;;;;;;5031485;28;20045;-72
2021/03/04 07:59:47;;;;;;;15.52;10.48;;;4.30;91.90;;;;;;5031683;28;20049;-72
2021/03/04 08:02:43;;;;;;;20.45;11.25;;;4.30;91.80;;;;;;5031674;28;20473;-74
2021/03/04 08:05:30;;;;;;;17.80;10.98;;;4.30;91.90;;;;;;5031238;28;20049;-73
2021/03/04 08:07:56;;;;;;;19.35;11.20;;;4.30;92.00;;;;;;5031580;28;20050;-73
2021/03/04 08:10:23;;;;;;;19.63;10.68;;;4.40;92.00;;;;;;5031304;28;20341;-73
2021/03/04 08:12:50;;;;;;;16.85;10.90;;;4.40;92.00;;;;;;5030829;28;20033;-73
2021/03/04 08:15:18;;;;;;;19.58;11.60;;;4.40;91.90;;;;;;5031132;28;20034;-73
2021/03/04 08:17:44;;;;;;;19.05;10.43;;;4.40;91.90;;;;;;5030604;28;20038;-73
2021/03/04 08:20:12;;;;;;;19.48;10.27;;;4.40;91.80;;;;;;5031233;28;20049;-73
2021/03/04 08:22:48;;;;;;;21.75;12.27;;;4.50;91.80;;;;;;5031486;28;20033;-73
2021/03/04 08:25:26;;;;;;;19.08;10.60;;;4.50;91.80;;;;;;5031029;28;20044;-73
2021/03/04 08:27:53;;;;;;;18.98;10.82;;;4.50;91.70;;;;;;5030845;28;20046;-73
2021/03/04 08:30:41;;;;;;;19.83;10.95;;;4.50;91.80;;;;;;5030202;28;20038;-73
2021/03/04 08:33:12;;;;;;;21.63;11.40;;;4.60;92.10;;;;;;5030738;28;20048;-73
2021/03/04 08:35:46;;;;;;;18.50;10.27;;;4.60;91.80;;;;;;5030733;28;20084;-73
2021/03/04 08:38:17;;;;;;;17.90;10.45;;;4.70;91.90;;;;;;5031090;28;20385;-73
2021/03/04 08:40:53;;;;;;;19.30;10.75;;;4.70;91.70;;;;;;5030313;28;20069;-73
2021/03/04 08:43:21;;;;;;;16.90;10.30;;;4.70;91.70;;;;;;5030833;28;20070;-74
2021/03/04 08:45:52;;;;;;;16.85;10.13;;;4.70;91.70;;;;;;5030802;28;20034;-73
2021/03/04 08:48:18;;;;;;;16.73;9.20;;;4.70;91.60;;;;;;5030729;28;20041;-73
2021/03/04 08:50:47;;;;;;;18.42;9.73;;;4.70;91.50;;;;;;5030573;28;20097;-73
2021/03/04 08:53:25;;;;;;;16.95;9.60;;;4.80;91.40;;;;;;5030564;28;20382;-74
2021/03/04 08:55:56;;;;;;;16.58;9.48;;;4.70;91.30;;;;;;5030961;28;20045;-73
2021/03/04 08:58:24;;;;;;;17.88;9.50;;;4.80;91.40;;;;;;5030613;28;20068;-73
2021/03/04 09:00:54;;;;;;;14.88;9.45;;;4.90;91.50;;;;;;5030874;28;20034;-73
2021/03/04 09:03:22;;;;;;;13.13;8.85;;;4.90;91.40;;;;;;5030620;28;20045;-73
2021/03/04 09:05:48;;;;;;;15.05;9.00;;;4.80;91.30;;;;;;5030609;28;20037;-73
2021/03/04 09:08:15;;;;;;;15.32;9.15;;;4.90;91.10;;;;;;5031030;28;20362;-73
2021/03/04 09:10:51;;;;;;;18.13;9.88;;;4.90;91.20;;;;;;5029954;28;20474;-73
2021/03/04 09:13:26;;;;;;;15.85;8.50;;;4.90;91.10;;;;;;5030660;28;20041;-73
2021/03/04 09:15:58;;;;;;;12.00;8.48;;;4.90;91.20;;;;;;5030171;28;20034;-73
2021/03/04 09:18:25;;;;;;;16.15;9.90;;;5.00;91.30;;;;;;5030825;28;20045;-73
2021/03/04 09:20:54;;;;;;;11.05;7.40;;;5.00;91.20;;;;;;5030115;28;20285;-73
2021/03/04 09:23:21;;;;;;;12.23;5.72;;;5.00;91.20;;;;;;5030045;28;20037;-73
2021/03/04 09:25:47;;;;;;;11.20;7.07;;;5.00;91.00;;;;;;5030570;28;20034;-74
2021/03/04 09:28:16;;;;;;;12.63;5.97;;;5.10;91.00;;;;;;5030452;28;20081;-73
2021/03/04 09:30:42;;;;;;;10.02;5.45;;;5.10;90.80;;;;;;5030490;28;20050;-73
2021/03/04 09:33:22;;;;;;;8.52;5.47;;;5.10;90.80;;;;;;5028951;28;20171;-74
2021/03/04 09:35:58;;;;;;;7.10;5.18;;;5.10;90.70;;;;;;5029917;28;20038;-74
2021/03/04 09:38:25;;;;;;;8.75;4.55;;;5.10;90.80;;;;;;5030214;28;20041;-73
2021/03/04 09:40:52;;;;;;;9.52;5.22;;;5.10;90.60;;;;;;5030303;28;20482;-73
2021/03/04 09:43:19;;;;;;;10.70;5.20;;;5.20;90.70;;;;;;5029886;28;20482;-73
2021/03/04 09:45:53;;;;;;;6.45;4.85;;;5.20;90.70;;;;;;5030490;28;20042;-73
2021/03/04 09:48:31;;;;;;;;;;;5.30;90.70;;;;;;5030271;28;20037;-73
2021/03/04 09:50:57;;;;;;;7.03;4.43;;;5.20;90.30;;;;;;5030042;28;19928;-74
2021/03/04 09:53:23;;;;;;;8.07;4.93;;;5.30;90.50;;;;;;5033083;28;20393;-74
2021/03/04 09:55:49;;;;;;;9.35;5.65;;;5.40;90.50;;;;;;5033592;28;20072;-73
2021/03/04 09:58:21;;;;;;;7.10;5.25;;;5.50;90.50;;;;;;5032680;28;20135;-74
2021/03/04 10:01:00;;;;;;;12.27;5.43;;;5.50;90.40;;;;;;5033823;28;20047;-74
2021/03/04 10:03:37;;;;;;;11.18;4.78;;;5.60;90.30;;;;;;5033177;28;20050;-73
2021/03/04 10:06:05;;;;;;;9.05;4.50;;;5.60;90.10;;;;;;5033499;28;20037;-73
2021/03/04 10:08:39;;;;;;;9.57;4.63;;;5.60;90.10;;;;;;5033167;28;20042;-73
2021/03/04 10:11:05;;;;;;;8.00;4.68;;;5.60;90.30;;;;;;5033272;28;20061;-73
2021/03/04 10:13:31;;;;;;;9.38;4.22;;;5.60;90.10;;;;;;5032837;28;20065;-73
2021/03/04 10:16:12;;;;;;;6.13;4.20;;;5.60;90.30;;;;;;5033140;28;20094;-73
2021/03/04 10:18:38;;;;;;;7.68;4.88;;;5.70;90.10;;;;;;5033112;28;20046;-73
2021/03/04 10:21:04;;;;;;;5.38;4.28;;;5.80;90.00;;;;;;5031777;28;20037;-72
2021/03/04 10:23:31;;;;;;;7.68;4.15;;;5.80;89.90;;;;;;5032638;27;20042;-72
2021/03/04 10:25:56;;;;;;;10.65;4.88;;;5.80;89.60;;;;;;5033259;28;20041;-72
2021/03/04 10:28:22;;;;;;;5.28;3.90;;;5.90;89.60;;;;;;5032468;28;20400;-72
2021/03/04 10:30:48;;;;;;;8.20;4.78;;;5.90;89.40;;;;;;5032703;28;20397;-72
2021/03/04 10:33:13;;;;;;;9.48;4.00;;;5.90;89.40;;;;;;5032670;28;20069;-72
2021/03/04 10:35:39;;;;;;;9.07;4.30;;;6.00;89.70;;;;;;5032991;28;20033;-72
2021/03/04 10:38:05;;;;;;;6.05;3.80;;;6.10;89.50;;;;;;5032736;28;20476;-72
2021/03/04 10:40:31;;;;;;;10.05;5.60;;;6.10;89.30;;;;;;5033087;28;20073;-72
2021/03/04 10:42:57;;;;;;;7.32;4.18;;;6.00;89.10;;;;;;5032436;28;20056;-74
2021/03/04 10:45:23;;;;;;;9.73;5.03;;;6.10;89.20;;;;;;5032659;28;20078;-71
2021/03/04 10:47:49;;;;;;;6.63;4.28;;;6.10;89.30;;;;;;5032544;28;20170;-72
2021/03/04 10:50:20;;;;;;;6.78;4.30;;;6.10;89.20;;;;;;5032826;28;20046;-72
2021/03/04 10:52:47;;;;;;;9.88;4.18;;;6.10;89.30;;;;;;5032013;28;20042;-72
2021/03/04 10:55:13;;;;;;;9.55;2.60;;;6.10;89.10;;;;;;5032234;28;20039;-71
2021/03/04 10:57:39;;;;;;;8.30;3.30;;;6.10;87.30;;;;;;5032563;28;20045;-72
2021/03/04 11:00:06;;;;;;;10.55;3.35;;;6.20;86.90;;;;;;5032363;28;20037;-72
2021/03/04 11:02:32;;;;;;;11.55;2.38;;;6.30;86.00;;;;;;5031490;28;20599;-73
2021/03/04 11:04:58;;;;;;;8.55;2.58;;;6.30;84.60;;;;;;5030721;28;20046;-73
2021/03/04 11:07:36;;;;;;;11.40;2.90;;;6.40;84.10;;;;;;5032259;28;20038;-69
2021/03/04 11:10:08;;;;;;;9.40;2.50;;;6.30;83.20;;;;;;5031066;28;20037;-71
2021/03/04 11:12:34;;;;;;;13.45;2.63;;;6.30;82.50;;;;;;5032123;28;20053;-71
2021/03/04 11:14:59;;;;;;;14.48;2.33;;;6.30;81.70;;;;;;5032121;28;20034;-73
2021/03/04 11:17:26;;;;;;;8.00;3.25;;;6.20;81.90;;;;;;5032078;28;20064;-72
2021/03/04 11:19:51;;;;;;;11.20;3.35;;;6.20;82.10;;;;;;5031826;28;20079;-72
2021/03/04 11:22:17;;;;;;;8.77;2.55;;;6.20;82.00;;;;;;5032073;28;20060;-72
2021/03/04 11:24:47;;;;;;;12.32;2.70;;;6.30;81.40;;;;;;5031585;28;20044;-73
2021/03/04 11:27:14;;;;;;;16.65;3.10;;;6.30;80.80;;;;;;5032336;28;20090;-73
2021/03/04 11:29:41;;;;;;;14.20;2.90;;;6.30;80.20;;;;;;5031641;28;20071;-73
2021/03/04 11:32:07;;;;;;;9.75;1.98;;;6.30;78.50;;;;;;5032314;28;20073;-73
2021/03/04 11:34:32;;;;;;;14.82;3.05;;;6.40;77.40;;;;;;5031481;28;20096;-73
2021/03/04 11:36:58;;;;;;;20.55;3.28;;;6.30;77.10;;;;;;5032074;28;20065;-73
2021/03/04 11:39:24;;;;;;;13.68;2.92;;;6.30;78.10;;;;;;5032211;28;20496;-73
2021/03/04 11:41:50;;;;;;;14.43;2.95;;;6.30;79.50;;;;;;5031729;28;20037;-73
2021/03/04 11:44:15;;;;;;;19.08;4.82;;;6.30;80.10;;;;;;5031615;28;20073;-73
2021/03/04 11:46:41;;;;;;;18.50;3.90;;;6.40;80.60;;;;;;5031508;28;20045;-73
2021/03/04 11:49:07;;;;;;;23.30;4.05;;;6.30;80.90;;;;;;5031475;28;20042;-73
2021/03/04 11:51:33;;;;;;;23.20;4.45;;;6.30;81.30;;;;;;5031551;28;20042;-72
2021/03/04 11:53:59;;;;;;;18.63;3.85;;;6.20;80.60;;;;;;5031370;28;20354;-72
2021/03/04 11:56:25;;;;;;;21.45;4.38;;;6.10;81.20;;;;;;5031417;28;20117;-73
2021/03/04 11:58:51;;;;;;;26.48;3.78;;;6.10;81.40;;;;;;5031834;28;20381;-73
2021/03/04 12:01:17;;;;;;;23.83;4.80;;;6.10;81.20;;;;;;5031129;28;20042;-73
2021/03/04 12:03:43;;;;;;;19.02;3.65;;;6.00;80.90;;;;;;5030889;28;20038;-72
2021/03/04 12:06:09;;;;;;;24.55;3.92;;;6.00;81.00;;;;;;5031038;28;20056;-73
2021/03/04 12:08:35;;;;;;;23.02;3.60;;;6.00;80.90;;;;;;5029975;28;20045;-73
2021/03/04 12:11:01;;;;;;;25.02;3.88;;;6.00;80.80;;;;;;5031632;28;20129;-73
2021/03/04 12:13:31;;;;;;;18.25;3.72;;;6.10;81.00;;;;;;5030341;28;20080;-73
2021/03/04 12:16:08;;;;;;;24.65;4.57;;;6.20;81.40;;;;;;5031143;28;20029;-73
2021/03/04 12:18:33;;;;;;;18.00;4.07;;;6.30;80.40;;;;;;5030061;28;20077;-73
2021/03/04 12:21:00;;;;;;;14.77;3.67;;;6.30;80.20;;;;;;5030938;28;20072;-73
2021/03/04 12:23:26;;;;;;;21.50;5.57;;;6.40;80.30;;;;;;5030921;28;20045;-73
2021/03/04 12:25:52;;;;;;;23.50;4.90;;;6.40;79.90;;;;;;5031147;28;20046;-73
2021/03/04 12:28:18;;;;;;;15.73;4.60;;;6.30;79.60;;;;;;5031995;28;20068;-73
2021/03/04 12:30:44;;;;;;;23.30;3.90;;;6.40;80.10;;;;;;5030856;28;20037;-73
2021/03/04 12:33:10;;;;;;;16.83;3.97;;;6.30;80.00;;;;;;5030688;28;20072;-73
2021/03/04 12:35:36;;;;;;;23.10;4.28;;;6.20;79.70;;;;;;5030588;28;20064;-73
2021/03/04 12:38:02;;;;;;;10.73;3.15;;;6.20;80.30;;;;;;5031050;28;20038;-73
2021/03/04 12:40:28;;;;;;;11.80;3.22;;;6.20;79.90;;;;;;5030554;28;20087;-73
2021/03/04 12:42:54;;;;;;;20.60;5.57;;;6.20;80.10;;;;;;5030784;28;20500;-73
2021/03/04 12:45:20;;;;;;;20.73;4.72;;;6.10;80.40;;;;;;5030262;28;20033;-73
2021/03/04 12:47:45;;;;;;;12.63;4.07;;;6.00;80.30;;;;;;5030528;28;20054;-73